sensor_id;sensor_type;location;lat;lon;timestamp;P1;durP1;ratioP1;P2;durP2;ratioP2
30892;SDS011;17595;50.884;4.346;2023-04-25T00:00:45;17.50;;;4.80;;
30892;SDS011;17595;50.884;4.346;2023-04-25T00:03:11;15.90;;;4.65;;
30892;SDS011;17595;50.884;4.346;2023-04-25T00:05:36;12.65;;;4.10;;
30892;SDS011;17595;50.884;4.346;2023-04-25T00:08:03;16.35;;;4.53;;
30892;SDS011;17595;50.884;4.346;2023-04-25T00:10:29;16.83;;;4.85;;
30892;SDS011;17595;50.884;4.346;2023-04-25T00:12:54;15.55;;;4.60;;
30892;SDS011;17595;50.884;4.346;2023-04-25T00:15:20;13.70;;;4.00;;
30892;SDS011;17595;50.884;4.346;2023-04-25T00:17:46;14.38;;;4.22;;
30892;SDS011;17595;50.884;4.346;2023-04-25T00:20:12;25.02;;;4.57;;
30892;SDS011;17595;50.884;4.346;2023-04-25T00:22:38;13.77;;;4.47;;
30892;SDS011;17595;50.884;4.346;2023-04-25T00:25:04;16.38;;;4.45;;
30892;SDS011;17595;50.884;4.346;2023-04-25T00:27:31;19.85;;;4.85;;
30892;SDS011;17595;50.884;4.346;2023-04-25T00:29:57;14.40;;;4.82;;
30892;SDS011;17595;50.884;4.346;2023-04-25T00:32:23;21.15;;;4.68;;
30892;SDS011;17595;50.884;4.346;2023-04-25T00:34:48;23.55;;;5.28;;
30892;SDS011;17595;50.884;4.346;2023-04-25T00:37:14;19.90;;;3.88;;
30892;SDS011;17595;50.884;4.346;2023-04-25T00:39:40;22.30;;;4.78;;
30892;SDS011;17595;50.884;4.346;2023-04-25T00:42:06;9.65;;;3.70;;
30892;SDS011;17595;50.884;4.346;2023-04-25T00:44:33;13.60;;;4.20;;
30892;SDS011;17595;50.884;4.346;2023-04-25T00:47:00;16.52;;;4.57;;
30892;SDS011;17595;50.884;4.346;2023-04-25T00:49:27;12.15;;;4.20;;
30892;SDS011;17595;50.884;4.346;2023-04-25T00:51:52;14.18;;;4.32;;
30892;SDS011;17595;50.884;4.346;2023-04-25T00:54:18;16.90;;;4.38;;
30892;SDS011;17595;50.884;4.346;2023-04-25T00:56:44;22.15;;;4.93;;
30892;SDS011;17595;50.884;4.346;2023-04-25T00:59:10;16.30;;;4.32;;
30892;SDS011;17595;50.884;4.346;2023-04-25T01:01:36;18.55;;;5.03;;
30892;SDS011;17595;50.884;4.346;2023-04-25T01:04:04;20.90;;;5.05;;
30892;SDS011;17595;50.884;4.346;2023-04-25T01:06:30;20.40;;;4.80;;
30892;SDS011;17595;50.884;4.346;2023-04-25T01:08:58;20.30;;;6.13;;
30892;SDS011;17595;50.884;4.346;2023-04-25T01:11:24;17.58;;;4.65;;
30892;SDS011;17595;50.884;4.346;2023-04-25T01:13:50;16.85;;;4.32;;
30892;SDS011;17595;50.884;4.346;2023-04-25T01:16:16;22.40;;;4.88;;
30892;SDS011;17595;50.884;4.346;2023-04-25T01:18:41;16.80;;;4.57;;
30892;SDS011;17595;50.884;4.346;2023-04-25T01:21:09;24.95;;;4.88;;
30892;SDS011;17595;50.884;4.346;2023-04-25T01:23:35;19.73;;;4.93;;
30892;SDS011;17595;50.884;4.346;2023-04-25T01:26:03;27.40;;;5.05;;
30892;SDS011;17595;50.884;4.346;2023-04-25T01:28:29;16.35;;;4.32;;
30892;SDS011;17595;50.884;4.346;2023-04-25T01:30:55;16.48;;;4.53;;
30892;SDS011;17595;50.884;4.346;2023-04-25T01:33:21;16.52;;;4.38;;
30892;SDS011;17595;50.884;4.346;2023-04-25T01:35:47;15.25;;;4.40;;
30892;SDS011;17595;50.884;4.346;2023-04-25T01:38:13;17.17;;;4.85;;
30892;SDS011;17595;50.884;4.346;2023-04-25T01:40:40;16.75;;;4.55;;
30892;SDS011;17595;50.884;4.346;2023-04-25T01:43:06;19.05;;;4.00;;
30892;SDS011;17595;50.884;4.346;2023-04-25T01:45:35;18.85;;;4.32;;
30892;SDS011;17595;50.884;4.346;2023-04-25T01:48:04;20.85;;;4.25;;
30892;SDS011;17595;50.884;4.346;2023-04-25T01:50:30;18.63;;;4.80;;
30892;SDS011;17595;50.884;4.346;2023-04-25T01:52:56;14.02;;;4.53;;
30892;SDS011;17595;50.884;4.346;2023-04-25T01:55:22;16.30;;;4.22;;
30892;SDS011;17595;50.884;4.346;2023-04-25T01:57:47;20.08;;;4.80;;
30892;SDS011;17595;50.884;4.346;2023-04-25T02:00:13;14.68;;;4.80;;
30892;SDS011;17595;50.884;4.346;2023-04-25T02:02:39;15.43;;;4.55;;
30892;SDS011;17595;50.884;4.346;2023-04-25T02:05:05;17.63;;;5.47;;
30892;SDS011;17595;50.884;4.346;2023-04-25T02:07:31;22.40;;;4.95;;
30892;SDS011;17595;50.884;4.346;2023-04-25T02:09:57;18.10;;;4.55;;
30892;SDS011;17595;50.884;4.346;2023-04-25T02:12:23;18.33;;;4.75;;
30892;SDS011;17595;50.884;4.346;2023-04-25T02:14:51;17.05;;;4.18;;
30892;SDS011;17595;50.884;4.346;2023-04-25T02:17:17;18.75;;;4.70;;
30892;SDS011;17595;50.884;4.346;2023-04-25T02:19:43;18.45;;;4.30;;
30892;SDS011;17595;50.884;4.346;2023-04-25T02:22:08;21.65;;;5.03;;
30892;SDS011;17595;50.884;4.346;2023-04-25T02:24:35;19.25;;;4.93;;
30892;SDS011;17595;50.884;4.346;2023-04-25T02:27:01;14.65;;;5.10;;
30892;SDS011;17595;50.884;4.346;2023-04-25T02:29:27;19.52;;;5.07;;
30892;SDS011;17595;50.884;4.346;2023-04-25T02:31:54;22.38;;;5.85;;
30892;SDS011;17595;50.884;4.346;2023-04-25T02:34:19;18.77;;;5.03;;
30892;SDS011;17595;50.884;4.346;2023-04-25T02:36:45;21.77;;;4.57;;
30892;SDS011;17595;50.884;4.346;2023-04-25T02:39:11;18.65;;;4.35;;
30892;SDS011;17595;50.884;4.346;2023-04-25T02:41:36;18.55;;;5.55;;
30892;SDS011;17595;50.884;4.346;2023-04-25T02:44:02;20.50;;;4.95;;
30892;SDS011;17595;50.884;4.346;2023-04-25T02:46:28;19.85;;;4.30;;
30892;SDS011;17595;50.884;4.346;2023-04-25T02:48:54;20.65;;;4.50;;
30892;SDS011;17595;50.884;4.346;2023-04-25T02:51:19;18.27;;;5.10;;
30892;SDS011;17595;50.884;4.346;2023-04-25T02:53:45;15.30;;;4.43;;
30892;SDS011;17595;50.884;4.346;2023-04-25T02:56:10;17.75;;;4.75;;
30892;SDS011;17595;50.884;4.346;2023-04-25T02:58:36;22.98;;;4.57;;
30892;SDS011;17595;50.884;4.346;2023-04-25T03:01:02;14.65;;;4.40;;
30892;SDS011;17595;50.884;4.346;2023-04-25T03:03:27;16.95;;;4.63;;
30892;SDS011;17595;50.884;4.346;2023-04-25T03:05:53;19.42;;;4.57;;
30892;SDS011;17595;50.884;4.346;2023-04-25T03:08:19;23.52;;;5.43;;
30892;SDS011;17595;50.884;4.346;2023-04-25T03:10:45;24.55;;;5.35;;
30892;SDS011;17595;50.884;4.346;2023-04-25T03:13:10;19.58;;;4.50;;
30892;SDS011;17595;50.884;4.346;2023-04-25T03:15:37;19.30;;;4.40;;
30892;SDS011;17595;50.884;4.346;2023-04-25T03:18:03;17.08;;;4.03;;
30892;SDS011;17595;50.884;4.346;2023-04-25T03:20:28;17.92;;;4.22;;
30892;SDS011;17595;50.884;4.346;2023-04-25T03:22:55;21.45;;;5.15;;
30892;SDS011;17595;50.884;4.346;2023-04-25T03:25:21;17.17;;;4.55;;
30892;SDS011;17595;50.884;4.346;2023-04-25T03:27:47;18.25;;;5.10;;
30892;SDS011;17595;50.884;4.346;2023-04-25T03:30:12;22.13;;;5.38;;
30892;SDS011;17595;50.884;4.346;2023-04-25T03:32:38;22.88;;;4.75;;
30892;SDS011;17595;50.884;4.346;2023-04-25T03:35:04;21.75;;;4.90;;
30892;SDS011;17595;50.884;4.346;2023-04-25T03:37:30;21.58;;;4.72;;
30892;SDS011;17595;50.884;4.346;2023-04-25T03:39:56;20.85;;;5.18;;
30892;SDS011;17595;50.884;4.346;2023-04-25T03:42:21;18.77;;;4.18;;
30892;SDS011;17595;50.884;4.346;2023-04-25T03:44:48;18.83;;;4.60;;
30892;SDS011;17595;50.884;4.346;2023-04-25T03:47:14;17.15;;;4.43;;
30892;SDS011;17595;50.884;4.346;2023-04-25T03:49:40;22.45;;;4.65;;
30892;SDS011;17595;50.884;4.346;2023-04-25T03:52:06;14.50;;;4.25;;
30892;SDS011;17595;50.884;4.346;2023-04-25T03:54:32;18.15;;;3.70;;
30892;SDS011;17595;50.884;4.346;2023-04-25T03:56:57;22.05;;;4.82;;
30892;SDS011;17595;50.884;4.346;2023-04-25T03:59:23;19.00;;;4.60;;
30892;SDS011;17595;50.884;4.346;2023-04-25T04:01:49;16.33;;;4.07;;
30892;SDS011;17595;50.884;4.346;2023-04-25T04:04:15;19.88;;;4.43;;
30892;SDS011;17595;50.884;4.346;2023-04-25T04:06:41;22.08;;;4.43;;
30892;SDS011;17595;50.884;4.346;2023-04-25T04:09:07;17.77;;;4.15;;
30892;SDS011;17595;50.884;4.346;2023-04-25T04:11:36;15.48;;;4.00;;
30892;SDS011;17595;50.884;4.346;2023-04-25T04:14:03;18.10;;;4.18;;
30892;SDS011;17595;50.884;4.346;2023-04-25T04:16:30;19.88;;;4.30;;
30892;SDS011;17595;50.884;4.346;2023-04-25T04:18:56;17.08;;;4.07;;
30892;SDS011;17595;50.884;4.346;2023-04-25T04:21:21;25.63;;;4.93;;
30892;SDS011;17595;50.884;4.346;2023-04-25T04:23:47;19.38;;;4.35;;
30892;SDS011;17595;50.884;4.346;2023-04-25T04:26:13;18.55;;;4.75;;
30892;SDS011;17595;50.884;4.346;2023-04-25T04:28:41;20.10;;;4.47;;
30892;SDS011;17595;50.884;4.346;2023-04-25T04:31:09;18.08;;;4.43;;
30892;SDS011;17595;50.884;4.346;2023-04-25T04:33:35;20.65;;;4.80;;
30892;SDS011;17595;50.884;4.346;2023-04-25T04:36:01;22.17;;;4.35;;
30892;SDS011;17595;50.884;4.346;2023-04-25T04:38:28;22.05;;;3.80;;
30892;SDS011;17595;50.884;4.346;2023-04-25T04:40:54;21.00;;;4.28;;
30892;SDS011;17595;50.884;4.346;2023-04-25T04:43:20;17.52;;;4.20;;
30892;SDS011;17595;50.884;4.346;2023-04-25T04:45:47;14.07;;;3.92;;
30892;SDS011;17595;50.884;4.346;2023-04-25T04:48:15;21.00;;;4.93;;
30892;SDS011;17595;50.884;4.346;2023-04-25T04:50:42;17.00;;;5.15;;
30892;SDS011;17595;50.884;4.346;2023-04-25T04:53:10;23.30;;;4.43;;
30892;SDS011;17595;50.884;4.346;2023-04-25T04:55:36;16.92;;;4.35;;
30892;SDS011;17595;50.884;4.346;2023-04-25T04:58:02;18.08;;;4.75;;
30892;SDS011;17595;50.884;4.346;2023-04-25T05:00:28;19.60;;;4.22;;
30892;SDS011;17595;50.884;4.346;2023-04-25T05:02:54;17.27;;;4.07;;
30892;SDS011;17595;50.884;4.346;2023-04-25T05:05:20;15.73;;;4.32;;
30892;SDS011;17595;50.884;4.346;2023-04-25T05:07:46;13.73;;;3.92;;
30892;SDS011;17595;50.884;4.346;2023-04-25T05:10:12;14.25;;;3.58;;
30892;SDS011;17595;50.884;4.346;2023-04-25T05:12:38;13.13;;;3.80;;
30892;SDS011;17595;50.884;4.346;2023-04-25T05:15:03;14.10;;;3.50;;
30892;SDS011;17595;50.884;4.346;2023-04-25T05:17:29;10.93;;;3.85;;
30892;SDS011;17595;50.884;4.346;2023-04-25T05:19:55;10.48;;;3.40;;
30892;SDS011;17595;50.884;4.346;2023-04-25T05:22:20;20.67;;;3.55;;
30892;SDS011;17595;50.884;4.346;2023-04-25T05:24:46;13.30;;;3.70;;
30892;SDS011;17595;50.884;4.346;2023-04-25T05:27:13;17.45;;;4.88;;
30892;SDS011;17595;50.884;4.346;2023-04-25T05:29:41;16.33;;;4.22;;
30892;SDS011;17595;50.884;4.346;2023-04-25T05:32:06;14.18;;;3.97;;
30892;SDS011;17595;50.884;4.346;2023-04-25T05:34:33;16.95;;;4.07;;
30892;SDS011;17595;50.884;4.346;2023-04-25T05:36:59;16.38;;;4.95;;
30892;SDS011;17595;50.884;4.346;2023-04-25T05:39:24;16.17;;;4.80;;
30892;SDS011;17595;50.884;4.346;2023-04-25T05:41:50;14.75;;;4.75;;
30892;SDS011;17595;50.884;4.346;2023-04-25T05:44:15;13.38;;;4.35;;
30892;SDS011;17595;50.884;4.346;2023-04-25T05:46:41;19.73;;;4.78;;
30892;SDS011;17595;50.884;4.346;2023-04-25T05:49:07;13.88;;;4.50;;
30892;SDS011;17595;50.884;4.346;2023-04-25T05:51:32;17.17;;;5.18;;
30892;SDS011;17595;50.884;4.346;2023-04-25T05:53:58;20.42;;;5.43;;
30892;SDS011;17595;50.884;4.346;2023-04-25T05:56:24;15.05;;;4.80;;
30892;SDS011;17595;50.884;4.346;2023-04-25T05:58:49;11.55;;;4.20;;
30892;SDS011;17595;50.884;4.346;2023-04-25T06:01:15;10.38;;;4.20;;
30892;SDS011;17595;50.884;4.346;2023-04-25T06:03:41;15.50;;;3.65;;
30892;SDS011;17595;50.884;4.346;2023-04-25T06:06:08;11.07;;;3.95;;
30892;SDS011;17595;50.884;4.346;2023-04-25T06:08:34;16.00;;;4.00;;
30892;SDS011;17595;50.884;4.346;2023-04-25T06:10:59;16.92;;;4.20;;
30892;SDS011;17595;50.884;4.346;2023-04-25T06:13:25;13.85;;;4.07;;
30892;SDS011;17595;50.884;4.346;2023-04-25T06:15:51;13.35;;;3.90;;
30892;SDS011;17595;50.884;4.346;2023-04-25T06:18:16;9.57;;;3.45;;
30892;SDS011;17595;50.884;4.346;2023-04-25T06:20:42;18.98;;;3.97;;
30892;SDS011;17595;50.884;4.346;2023-04-25T06:23:08;10.38;;;3.50;;
30892;SDS011;17595;50.884;4.346;2023-04-25T06:25:33;9.07;;;3.08;;
30892;SDS011;17595;50.884;4.346;2023-04-25T06:27:59;12.23;;;3.10;;
30892;SDS011;17595;50.884;4.346;2023-04-25T06:30:24;10.00;;;3.40;;
30892;SDS011;17595;50.884;4.346;2023-04-25T06:32:50;11.27;;;2.83;;
30892;SDS011;17595;50.884;4.346;2023-04-25T06:35:17;12.77;;;3.67;;
30892;SDS011;17595;50.884;4.346;2023-04-25T06:37:43;12.60;;;3.10;;
30892;SDS011;17595;50.884;4.346;2023-04-25T06:40:09;11.82;;;3.45;;
30892;SDS011;17595;50.884;4.346;2023-04-25T06:42:35;19.88;;;4.13;;
30892;SDS011;17595;50.884;4.346;2023-04-25T06:45:01;14.68;;;3.50;;
30892;SDS011;17595;50.884;4.346;2023-04-25T06:47:27;14.90;;;3.67;;
30892;SDS011;17595;50.884;4.346;2023-04-25T06:49:54;16.10;;;3.70;;
30892;SDS011;17595;50.884;4.346;2023-04-25T06:52:20;14.55;;;3.97;;
30892;SDS011;17595;50.884;4.346;2023-04-25T06:54:46;17.48;;;3.40;;
30892;SDS011;17595;50.884;4.346;2023-04-25T06:57:11;10.77;;;3.47;;
30892;SDS011;17595;50.884;4.346;2023-04-25T06:59:37;13.90;;;3.58;;
30892;SDS011;17595;50.884;4.346;2023-04-25T07:02:03;16.13;;;5.18;;
30892;SDS011;17595;50.884;4.346;2023-04-25T07:04:29;10.68;;;3.42;;
30892;SDS011;17595;50.884;4.346;2023-04-25T07:06:55;10.85;;;3.20;;
30892;SDS011;17595;50.884;4.346;2023-04-25T07:09:21;11.95;;;3.40;;
30892;SDS011;17595;50.884;4.346;2023-04-25T07:11:47;18.42;;;3.30;;
30892;SDS011;17595;50.884;4.346;2023-04-25T07:14:13;15.98;;;3.33;;
30892;SDS011;17595;50.884;4.346;2023-04-25T07:16:39;19.92;;;3.85;;
30892;SDS011;17595;50.884;4.346;2023-04-25T07:19:04;11.98;;;3.28;;
30892;SDS011;17595;50.884;4.346;2023-04-25T07:21:30;20.15;;;3.30;;
30892;SDS011;17595;50.884;4.346;2023-04-25T07:23:56;16.38;;;3.25;;
30892;SDS011;17595;50.884;4.346;2023-04-25T07:26:22;9.52;;;2.90;;
30892;SDS011;17595;50.884;4.346;2023-04-25T07:28:48;16.55;;;3.25;;
30892;SDS011;17595;50.884;4.346;2023-04-25T07:31:16;10.20;;;2.47;;
30892;SDS011;17595;50.884;4.346;2023-04-25T07:33:43;13.27;;;3.75;;
30892;SDS011;17595;50.884;4.346;2023-04-25T07:36:10;7.28;;;2.63;;
30892;SDS011;17595;50.884;4.346;2023-04-25T07:38:37;10.77;;;2.80;;
30892;SDS011;17595;50.884;4.346;2023-04-25T07:41:03;10.85;;;2.45;;
30892;SDS011;17595;50.884;4.346;2023-04-25T07:43:29;12.60;;;2.90;;
30892;SDS011;17595;50.884;4.346;2023-04-25T07:48:45;13.23;;;2.88;;
30892;SDS011;17595;50.884;4.346;2023-04-25T07:51:10;16.90;;;3.05;;
30892;SDS011;17595;50.884;4.346;2023-04-25T07:53:36;13.57;;;2.42;;
30892;SDS011;17595;50.884;4.346;2023-04-25T07:56:02;8.07;;;2.30;;
30892;SDS011;17595;50.884;4.346;2023-04-25T07:58:28;9.35;;;3.67;;
30892;SDS011;17595;50.884;4.346;2023-04-25T08:00:54;12.50;;;2.50;;
30892;SDS011;17595;50.884;4.346;2023-04-25T08:03:20;13.50;;;2.45;;
30892;SDS011;17595;50.884;4.346;2023-04-25T08:05:46;10.27;;;2.40;;
30892;SDS011;17595;50.884;4.346;2023-04-25T08:08:11;12.90;;;2.63;;
30892;SDS011;17595;50.884;4.346;2023-04-25T08:10:37;11.43;;;2.70;;
30892;SDS011;17595;50.884;4.346;2023-04-25T08:13:03;12.75;;;2.38;;
30892;SDS011;17595;50.884;4.346;2023-04-25T08:15:28;10.23;;;2.13;;
30892;SDS011;17595;50.884;4.346;2023-04-25T08:17:54;10.98;;;2.10;;
30892;SDS011;17595;50.884;4.346;2023-04-25T08:20:20;8.55;;;2.60;;
30892;SDS011;17595;50.884;4.346;2023-04-25T08:22:45;9.45;;;2.35;;
30892;SDS011;17595;50.884;4.346;2023-04-25T08:25:13;9.13;;;2.35;;
30892;SDS011;17595;50.884;4.346;2023-04-25T08:27:39;11.15;;;2.67;;
30892;SDS011;17595;50.884;4.346;2023-04-25T08:30:05;12.52;;;2.15;;
30892;SDS011;17595;50.884;4.346;2023-04-25T08:32:33;13.00;;;2.40;;
30892;SDS011;17595;50.884;4.346;2023-04-25T08:34:59;10.77;;;2.22;;
30892;SDS011;17595;50.884;4.346;2023-04-25T08:37:24;8.07;;;1.90;;
30892;SDS011;17595;50.884;4.346;2023-04-25T08:39:50;10.50;;;2.25;;
30892;SDS011;17595;50.884;4.346;2023-04-25T08:42:21;13.45;;;2.33;;
30892;SDS011;17595;50.884;4.346;2023-04-25T08:44:48;9.82;;;2.47;;
30892;SDS011;17595;50.884;4.346;2023-04-25T08:47:14;14.13;;;2.25;;
30892;SDS011;17595;50.884;4.346;2023-04-25T08:49:42;7.43;;;1.85;;
30892;SDS011;17595;50.884;4.346;2023-04-25T08:52:11;13.93;;;2.17;;
30892;SDS011;17595;50.884;4.346;2023-04-25T08:54:41;12.43;;;1.88;;
30892;SDS011;17595;50.884;4.346;2023-04-25T08:57:10;11.23;;;2.03;;
30892;SDS011;17595;50.884;4.346;2023-04-25T08:59:37;8.60;;;2.50;;
30892;SDS011;17595;50.884;4.346;2023-04-25T09:02:04;7.68;;;2.00;;
30892;SDS011;17595;50.884;4.346;2023-04-25T09:04:33;9.13;;;1.95;;
30892;SDS011;17595;50.884;4.346;2023-04-25T09:06:58;6.43;;;1.73;;
30892;SDS011;17595;50.884;4.346;2023-04-25T09:09:24;11.38;;;2.50;;
30892;SDS011;17595;50.884;4.346;2023-04-25T09:11:50;9.77;;;1.95;;
30892;SDS011;17595;50.884;4.346;2023-04-25T09:14:16;7.22;;;1.88;;
30892;SDS011;17595;50.884;4.346;2023-04-25T09:21:59;6.50;;;1.83;;
30892;SDS011;17595;50.884;4.346;2023-04-25T09:24:30;9.77;;;2.20;;
30892;SDS011;17595;50.884;4.346;2023-04-25T09:27:03;7.38;;;1.80;;
30892;SDS011;17595;50.884;4.346;2023-04-25T09:29:33;8.02;;;2.13;;
30892;SDS011;17595;50.884;4.346;2023-04-25T09:34:43;10.57;;;2.22;;
30892;SDS011;17595;50.884;4.346;2023-04-25T09:37:21;5.60;;;1.70;;
30892;SDS011;17595;50.884;4.346;2023-04-25T09:39:49;9.80;;;1.90;;
30892;SDS011;17595;50.884;4.346;2023-04-25T09:42:21;12.00;;;2.13;;
30892;SDS011;17595;50.884;4.346;2023-04-25T09:44:49;6.13;;;1.58;;
30892;SDS011;17595;50.884;4.346;2023-04-25T09:47:17;8.93;;;1.93;;
30892;SDS011;17595;50.884;4.346;2023-04-25T09:49:43;8.40;;;1.42;;
30892;SDS011;17595;50.884;4.346;2023-04-25T09:52:13;6.28;;;1.70;;
30892;SDS011;17595;50.884;4.346;2023-04-25T09:54:40;7.25;;;1.30;;
30892;SDS011;17595;50.884;4.346;2023-04-25T09:57:13;8.52;;;1.73;;
30892;SDS011;17595;50.884;4.346;2023-04-25T09:59:44;10.93;;;1.60;;
30892;SDS011;17595;50.884;4.346;2023-04-25T10:02:12;6.93;;;1.38;;
30892;SDS011;17595;50.884;4.346;2023-04-25T10:04:40;6.00;;;1.55;;
30892;SDS011;17595;50.884;4.346;2023-04-25T10:07:06;5.65;;;1.60;;
30892;SDS011;17595;50.884;4.346;2023-04-25T10:09:33;8.23;;;1.25;;
30892;SDS011;17595;50.884;4.346;2023-04-25T10:12:02;11.00;;;1.55;;
30892;SDS011;17595;50.884;4.346;2023-04-25T10:14:31;6.07;;;1.20;;
30892;SDS011;17595;50.884;4.346;2023-04-25T10:16:58;6.03;;;1.35;;
30892;SDS011;17595;50.884;4.346;2023-04-25T10:19:24;6.22;;;1.10;;
30892;SDS011;17595;50.884;4.346;2023-04-25T10:21:52;6.05;;;1.30;;
30892;SDS011;17595;50.884;4.346;2023-04-25T10:24:35;5.30;;;1.25;;
30892;SDS011;17595;50.884;4.346;2023-04-25T10:27:02;4.40;;;1.25;;
30892;SDS011;17595;50.884;4.346;2023-04-25T10:29:29;11.63;;;1.70;;
30892;SDS011;17595;50.884;4.346;2023-04-25T10:31:54;5.22;;;0.90;;
30892;SDS011;17595;50.884;4.346;2023-04-25T10:34:37;7.03;;;1.20;;
30892;SDS011;17595;50.884;4.346;2023-04-25T10:37:10;3.95;;;1.20;;
30892;SDS011;17595;50.884;4.346;2023-04-25T10:39:37;6.65;;;1.27;;
30892;SDS011;17595;50.884;4.346;2023-04-25T10:42:06;5.00;;;1.10;;
30892;SDS011;17595;50.884;4.346;2023-04-25T10:44:35;5.30;;;1.45;;
30892;SDS011;17595;50.884;4.346;2023-04-25T10:47:03;4.27;;;1.10;;
30892;SDS011;17595;50.884;4.346;2023-04-25T10:49:52;7.22;;;1.50;;
30892;SDS011;17595;50.884;4.346;2023-04-25T10:52:17;5.30;;;1.10;;
30892;SDS011;17595;50.884;4.346;2023-04-25T10:54:55;10.32;;;1.60;;
30892;SDS011;17595;50.884;4.346;2023-04-25T10:57:32;5.22;;;1.38;;
30892;SDS011;17595;50.884;4.346;2023-04-25T11:00:04;8.95;;;1.75;;
30892;SDS011;17595;50.884;4.346;2023-04-25T11:02:40;7.82;;;1.33;;
30892;SDS011;17595;50.884;4.346;2023-04-25T11:05:36;8.18;;;1.25;;
30892;SDS011;17595;50.884;4.346;2023-04-25T11:08:02;10.45;;;1.67;;
30892;SDS011;17595;50.884;4.346;2023-04-25T11:10:34;6.35;;;1.70;;
30892;SDS011;17595;50.884;4.346;2023-04-25T11:13:00;10.68;;;1.67;;
30892;SDS011;17595;50.884;4.346;2023-04-25T11:15:26;6.60;;;1.30;;
30892;SDS011;17595;50.884;4.346;2023-04-25T11:17:53;7.85;;;1.70;;
30892;SDS011;17595;50.884;4.346;2023-04-25T11:20:19;9.13;;;1.33;;
30892;SDS011;17595;50.884;4.346;2023-04-25T11:22:45;11.57;;;1.70;;
30892;SDS011;17595;50.884;4.346;2023-04-25T11:25:12;6.95;;;1.48;;
30892;SDS011;17595;50.884;4.346;2023-04-25T11:27:55;4.93;;;1.35;;
30892;SDS011;17595;50.884;4.346;2023-04-25T11:30:23;6.82;;;1.70;;
30892;SDS011;17595;50.884;4.346;2023-04-25T11:32:50;7.15;;;1.52;;
30892;SDS011;17595;50.884;4.346;2023-04-25T11:35:17;6.90;;;1.80;;
30892;SDS011;17595;50.884;4.346;2023-04-25T11:37:43;8.23;;;1.38;;
30892;SDS011;17595;50.884;4.346;2023-04-25T11:40:09;5.03;;;1.42;;
30892;SDS011;17595;50.884;4.346;2023-04-25T11:42:41;9.07;;;1.70;;
30892;SDS011;17595;50.884;4.346;2023-04-25T11:45:10;5.45;;;1.35;;
30892;SDS011;17595;50.884;4.346;2023-04-25T11:47:35;3.83;;;1.25;;
30892;SDS011;17595;50.884;4.346;2023-04-25T11:50:02;4.55;;;1.02;;
30892;SDS011;17595;50.884;4.346;2023-04-25T11:53:02;3.63;;;1.17;;
30892;SDS011;17595;50.884;4.346;2023-04-25T11:55:21;6.35;;;1.58;;
30892;SDS011;17595;50.884;4.346;2023-04-25T11:57:48;4.70;;;1.33;;
30892;SDS011;17595;50.884;4.346;2023-04-25T12:00:19;6.88;;;1.40;;
30892;SDS011;17595;50.884;4.346;2023-04-25T12:02:46;4.20;;;1.75;;
30892;SDS011;17595;50.884;4.346;2023-04-25T12:05:13;4.97;;;1.13;;
30892;SDS011;17595;50.884;4.346;2023-04-25T12:07:43;5.38;;;1.10;;
30892;SDS011;17595;50.884;4.346;2023-04-25T12:12:37;4.07;;;0.93;;
30892;SDS011;17595;50.884;4.346;2023-04-25T12:15:15;3.42;;;1.00;;
30892;SDS011;17595;50.884;4.346;2023-04-25T12:17:51;3.17;;;1.05;;
30892;SDS011;17595;50.884;4.346;2023-04-25T12:20:20;6.15;;;1.10;;
30892;SDS011;17595;50.884;4.346;2023-04-25T12:22:49;6.65;;;1.13;;
30892;SDS011;17595;50.884;4.346;2023-04-25T12:33:24;1.98;;;0.57;;
30892;SDS011;17595;50.884;4.346;2023-04-25T12:35:51;1.83;;;0.80;;
30892;SDS011;17595;50.884;4.346;2023-04-25T12:38:20;3.67;;;0.85;;
30892;SDS011;17595;50.884;4.346;2023-04-25T12:40:54;7.75;;;1.05;;
30892;SDS011;17595;50.884;4.346;2023-04-25T12:43:21;4.43;;;1.23;;
30892;SDS011;17595;50.884;4.346;2023-04-25T12:45:49;3.13;;;1.00;;
30892;SDS011;17595;50.884;4.346;2023-04-25T12:48:19;5.13;;;1.10;;
30892;SDS011;17595;50.884;4.346;2023-04-25T12:50:46;7.10;;;1.33;;
30892;SDS011;17595;50.884;4.346;2023-04-25T12:53:23;6.07;;;1.00;;
30892;SDS011;17595;50.884;4.346;2023-04-25T12:55:49;6.95;;;0.95;;
30892;SDS011;17595;50.884;4.346;2023-04-25T12:58:16;9.10;;;1.33;;
30892;SDS011;17595;50.884;4.346;2023-04-25T13:00:43;3.05;;;1.02;;
30892;SDS011;17595;50.884;4.346;2023-04-25T13:03:09;6.47;;;1.13;;
30892;SDS011;17595;50.884;4.346;2023-04-25T13:05:36;4.57;;;1.20;;
30892;SDS011;17595;50.884;4.346;2023-04-25T13:08:02;4.10;;;1.33;;
30892;SDS011;17595;50.884;4.346;2023-04-25T13:10:27;4.60;;;1.30;;
30892;SDS011;17595;50.884;4.346;2023-04-25T13:12:53;4.38;;;1.05;;
30892;SDS011;17595;50.884;4.346;2023-04-25T13:15:19;3.95;;;1.08;;
30892;SDS011;17595;50.884;4.346;2023-04-25T13:17:45;4.85;;;0.90;;
30892;SDS011;17595;50.884;4.346;2023-04-25T13:20:11;5.03;;;1.65;;
30892;SDS011;17595;50.884;4.346;2023-04-25T13:22:38;4.13;;;1.02;;
30892;SDS011;17595;50.884;4.346;2023-04-25T13:25:05;3.40;;;0.88;;
30892;SDS011;17595;50.884;4.346;2023-04-25T13:27:32;4.95;;;1.10;;
30892;SDS011;17595;50.884;4.346;2023-04-25T13:29:59;6.40;;;1.42;;
30892;SDS011;17595;50.884;4.346;2023-04-25T13:32:26;5.90;;;1.17;;
30892;SDS011;17595;50.884;4.346;2023-04-25T13:34:52;3.95;;;1.40;;
30892;SDS011;17595;50.884;4.346;2023-04-25T13:37:18;4.85;;;0.90;;
30892;SDS011;17595;50.884;4.346;2023-04-25T13:39:44;5.88;;;0.82;;
30892;SDS011;17595;50.884;4.346;2023-04-25T13:42:09;2.60;;;1.00;;
30892;SDS011;17595;50.884;4.346;2023-04-25T13:44:36;5.30;;;0.80;;
30892;SDS011;17595;50.884;4.346;2023-04-25T13:47:01;6.95;;;0.95;;
30892;SDS011;17595;50.884;4.346;2023-04-25T13:49:27;5.60;;;1.15;;
30892;SDS011;17595;50.884;4.346;2023-04-25T13:51:53;4.85;;;1.33;;
30892;SDS011;17595;50.884;4.346;2023-04-25T13:54:19;5.60;;;0.93;;
30892;SDS011;17595;50.884;4.346;2023-04-25T13:56:44;5.60;;;1.10;;
30892;SDS011;17595;50.884;4.346;2023-04-25T13:59:10;8.57;;;1.27;;
30892;SDS011;17595;50.884;4.346;2023-04-25T14:01:36;5.10;;;1.42;;
30892;SDS011;17595;50.884;4.346;2023-04-25T14:04:02;4.88;;;1.38;;
30892;SDS011;17595;50.884;4.346;2023-04-25T14:06:31;5.32;;;1.27;;
30892;SDS011;17595;50.884;4.346;2023-04-25T14:08:57;4.90;;;1.13;;
30892;SDS011;17595;50.884;4.346;2023-04-25T14:11:26;3.78;;;1.02;;
30892;SDS011;17595;50.884;4.346;2023-04-25T14:13:51;4.78;;;0.90;;
30892;SDS011;17595;50.884;4.346;2023-04-25T14:16:17;4.22;;;1.10;;
30892;SDS011;17595;50.884;4.346;2023-04-25T14:18:43;4.47;;;1.00;;
30892;SDS011;17595;50.884;4.346;2023-04-25T14:21:08;2.47;;;0.90;;
30892;SDS011;17595;50.884;4.346;2023-04-25T14:23:34;4.25;;;0.93;;
30892;SDS011;17595;50.884;4.346;2023-04-25T14:26:00;5.32;;;1.48;;
30892;SDS011;17595;50.884;4.346;2023-04-25T14:28:26;3.33;;;0.95;;
30892;SDS011;17595;50.884;4.346;2023-04-25T14:30:52;6.93;;;1.30;;
30892;SDS011;17595;50.884;4.346;2023-04-25T14:33:17;4.05;;;1.17;;
30892;SDS011;17595;50.884;4.346;2023-04-25T14:35:43;5.68;;;1.23;;
30892;SDS011;17595;50.884;4.346;2023-04-25T14:38:09;4.15;;;1.00;;
30892;SDS011;17595;50.884;4.346;2023-04-25T14:40:35;2.42;;;1.10;;
30892;SDS011;17595;50.884;4.346;2023-04-25T14:43:00;4.13;;;1.00;;
30892;SDS011;17595;50.884;4.346;2023-04-25T14:45:26;3.78;;;1.23;;
30892;SDS011;17595;50.884;4.346;2023-04-25T14:47:51;7.03;;;1.20;;
30892;SDS011;17595;50.884;4.346;2023-04-25T14:50:17;5.55;;;1.30;;
30892;SDS011;17595;50.884;4.346;2023-04-25T14:52:43;4.40;;;1.20;;
30892;SDS011;17595;50.884;4.346;2023-04-25T14:55:10;4.85;;;1.23;;
30892;SDS011;17595;50.884;4.346;2023-04-25T14:57:36;4.70;;;1.08;;
30892;SDS011;17595;50.884;4.346;2023-04-25T15:00:02;5.60;;;1.33;;